createdAt,value
2019-04-23T00:01:26.851Z,10.73
2019-04-23T00:03:47.242Z,11.47
2019-04-23T00:06:23.561Z,11.10
2019-04-23T00:11:26.052Z,11.60
2019-04-23T00:14:00.631Z,9.00
2019-04-23T00:16:29.875Z,9.87
2019-04-23T00:18:58.968Z,10.55
2019-04-23T00:21:59.964Z,12.47
2019-04-23T00:25:34.461Z,9.90
2019-04-23T00:27:38.180Z,9.90
2019-04-23T00:30:12.978Z,12.20
2019-04-23T00:32:39.289Z,13.03
2019-04-23T00:35:12.882Z,10.50
2019-04-23T00:38:06.587Z,10.93
2019-04-23T00:40:19.090Z,18.48
2019-04-23T00:42:53.542Z,10.27
2019-04-23T00:45:32.714Z,9.47
2019-04-23T00:47:54.784Z,9.73
2019-04-23T00:50:40.591Z,14.93
2019-04-23T00:53:03.850Z,16.13
2019-04-23T00:55:44.430Z,14.60
2019-04-23T00:58:12.463Z,10.90
2019-04-23T01:03:20.583Z,10.70
2019-04-23T01:06:09.622Z,9.80
2019-04-23T01:08:24.923Z,10.10
2019-04-23T01:11:16.760Z,11.10
2019-04-23T01:13:42.661Z,12.28
2019-04-23T01:16:28.595Z,11.40
2019-04-23T01:18:54.442Z,11.43
2019-04-23T01:21:22.289Z,12.40
2019-04-23T01:24:07.193Z,11.70
2019-04-23T01:27:33.885Z,11.10
2019-04-23T01:29:52.140Z,14.07
2019-04-23T01:32:20.739Z,10.87
2019-04-23T01:34:59.449Z,10.85
2019-04-23T01:37:30.486Z,9.27
2019-04-23T01:39:57.905Z,13.90
2019-04-23T01:42:46.141Z,14.30
2019-04-23T01:45:07.031Z,10.20
2019-04-23T01:47:39.286Z,14.90
2019-04-23T01:50:20.475Z,10.50
2019-04-23T01:55:31.472Z,11.63
2019-04-23T02:00:34.084Z,12.63
2019-04-23T02:03:13.613Z,13.47
2019-04-23T02:05:43.157Z,11.30
2019-04-23T02:08:12.865Z,12.20
2019-04-23T02:10:51.345Z,11.73
2019-04-23T02:13:28.614Z,11.10
2019-04-23T02:16:03.031Z,11.90
2019-04-23T02:18:25.036Z,11.13
2019-04-23T02:20:59.567Z,11.07
2019-04-23T02:23:44.377Z,10.70
2019-04-23T02:26:23.296Z,10.23
2019-04-23T02:28:53.488Z,11.13
2019-04-23T02:31:44.891Z,21.87
2019-04-23T02:34:13.817Z,13.50
2019-04-23T02:36:40.552Z,11.30
2019-04-23T02:41:48.767Z,12.73
2019-04-23T02:44:21.773Z,12.90
2019-04-23T02:46:56.780Z,12.53
2019-04-23T03:02:37.232Z,13.30
2019-04-23T03:04:57.081Z,16.73
2019-04-23T03:12:31.779Z,10.80
2019-04-23T03:29:38.216Z,20.43
2019-04-23T03:39:55.091Z,19.20
2019-04-23T03:42:11.930Z,14.83
2019-04-23T03:45:00.631Z,15.65
2019-04-23T03:47:18.850Z,14.83
2019-04-23T03:49:50.693Z,12.37
2019-04-23T03:52:23.249Z,15.73
2019-04-23T04:00:08.169Z,18.00
2019-04-23T04:05:22.290Z,17.17
2019-04-23T04:10:02.232Z,24.90
2019-04-23T04:15:31.243Z,15.07
2019-04-23T04:17:50.282Z,19.77
2019-04-23T04:20:33.184Z,16.15
2019-04-23T04:23:19.650Z,13.75
2019-04-23T04:28:11.578Z,15.03
2019-04-23T04:30:41.117Z,12.43
2019-04-23T04:35:58.306Z,12.43
2019-04-23T04:41:02.919Z,16.00
2019-04-23T04:43:58.761Z,12.50
2019-04-23T04:56:28.032Z,16.20
2019-04-23T05:03:45.852Z,17.67
2019-04-23T05:09:04.928Z,16.47
2019-04-23T05:11:35.107Z,18.67
2019-04-23T05:14:08.560Z,17.23
2019-04-23T05:16:49.034Z,18.83
2019-04-23T05:21:55.674Z,17.30
2019-04-23T05:24:28.708Z,20.12
2019-04-23T05:26:57.952Z,16.37
2019-04-23T05:29:30.600Z,15.90
2019-04-23T05:31:58.218Z,13.87
2019-04-23T05:34:39.841Z,14.60
2019-04-23T05:37:17.058Z,13.03
2019-04-23T05:42:31.737Z,18.47
2019-04-23T05:44:51.033Z,18.67
2019-04-23T05:47:33.369Z,16.83
2019-04-23T05:50:00.672Z,16.53
2019-04-23T05:52:29.690Z,16.40
2019-04-23T05:55:04.064Z,12.95
2019-04-23T05:57:34.304Z,16.97
2019-04-23T06:00:08.949Z,16.53
2019-04-23T06:02:46.024Z,17.00
2019-04-23T06:10:23.421Z,13.00
2019-04-23T06:12:50.645Z,16.50
2019-04-23T06:15:28.684Z,19.07
2019-04-23T06:18:03.473Z,13.90
2019-04-23T06:20:34.967Z,15.60
2019-04-23T06:23:06.320Z,14.57
2019-04-23T06:28:09.747Z,15.50
2019-04-23T06:33:14.681Z,14.47
2019-04-23T06:35:45.485Z,16.57
2019-04-23T06:40:53.996Z,16.52
2019-04-23T06:44:01.953Z,16.23
2019-04-23T06:46:19.808Z,14.75
2019-04-23T06:48:54.851Z,18.70
2019-04-23T06:51:40.202Z,16.93
2019-04-23T06:53:57.800Z,24.47
2019-04-23T06:56:43.269Z,25.72
2019-04-23T06:59:12.441Z,18.00
2019-04-23T07:01:51.066Z,14.50
2019-04-23T07:06:58.305Z,15.43
2019-04-23T07:09:13.149Z,15.97
2019-04-23T07:11:49.810Z,15.17
2019-04-23T07:14:33.932Z,16.47
2019-04-23T07:16:58.402Z,17.05
2019-04-23T07:19:33.537Z,16.20
2019-04-23T07:24:35.661Z,20.97
2019-04-23T07:27:10.312Z,15.03
2019-04-23T07:29:40.579Z,17.10
2019-04-23T07:32:11.014Z,17.30
2019-04-23T07:34:52.590Z,21.73
2019-04-23T07:37:17.632Z,21.90
2019-04-23T07:40:24.503Z,16.47
2019-04-23T07:46:02.447Z,18.77
2019-04-23T07:48:43.892Z,16.93
2019-04-23T07:53:52.030Z,20.37
2019-04-23T07:56:07.376Z,18.53
2019-04-23T07:58:33.546Z,21.47
2019-04-23T08:01:14.219Z,17.60
2019-04-23T08:03:47.891Z,16.97
2019-04-23T08:06:17.956Z,17.63
2019-04-23T08:09:03.659Z,18.90
2019-04-23T08:11:52.398Z,17.17
2019-04-23T08:14:13.554Z,18.32
2019-04-23T08:16:53.035Z,24.17
2019-04-23T08:19:33.470Z,18.23
2019-04-23T08:22:10.520Z,20.30
2019-04-23T08:27:42.030Z,20.40
2019-04-23T08:30:09.308Z,18.55
2019-04-23T08:32:52.210Z,20.27
2019-04-23T08:35:22.624Z,19.53
2019-04-23T08:38:11.622Z,19.53
2019-04-23T08:40:36.923Z,17.50
2019-04-23T08:45:57.825Z,19.90
2019-04-23T08:51:19.620Z,19.87
2019-04-23T08:53:43.109Z,16.30
2019-04-23T08:56:38.504Z,26.50
2019-04-23T08:59:01.773Z,24.83
2019-04-23T09:01:39.667Z,21.13
2019-04-23T09:04:00.902Z,15.53
2019-04-23T09:06:35.363Z,19.20
2019-04-23T09:09:13.180Z,18.87
2019-04-23T09:14:05.229Z,18.57
2019-04-23T09:16:51.411Z,21.10
2019-04-23T09:19:35.237Z,19.60
2019-04-23T09:22:08.669Z,17.73
2019-04-23T09:24:40.038Z,19.20
2019-04-23T09:27:16.256Z,26.02
2019-04-23T09:30:00.945Z,25.10
2019-04-23T09:33:00.860Z,17.23
2019-04-23T09:35:48.704Z,25.07
2019-04-23T09:38:46.013Z,20.90
2019-04-23T09:47:16.001Z,22.23
2019-04-23T09:49:46.734Z,22.50
2019-04-23T09:52:20.121Z,19.77
2019-04-23T09:54:58.101Z,17.90
2019-04-23T09:57:32.001Z,17.37
2019-04-23T10:00:02.627Z,18.60
2019-04-23T10:02:26.414Z,16.93
2019-04-23T10:04:48.717Z,15.67
2019-04-23T10:07:21.035Z,19.55
2019-04-23T10:09:42.538Z,17.07
2019-04-23T10:12:14.636Z,20.47
2019-04-23T10:15:00.766Z,22.67
2019-04-23T10:17:24.325Z,17.62
2019-04-23T10:19:55.407Z,19.73
2019-04-23T10:22:27.247Z,18.35
2019-04-23T10:24:59.367Z,15.90
2019-04-23T10:27:30.612Z,20.97
2019-04-23T10:30:01.844Z,16.40
2019-04-23T10:32:33.537Z,14.07
2019-04-23T10:35:14.648Z,18.20
2019-04-23T10:37:48.977Z,20.00
2019-04-23T10:40:25.534Z,21.67
2019-04-23T10:42:52.261Z,24.03
2019-04-23T10:45:47.894Z,17.70
2019-04-23T10:49:25.899Z,30.47
2019-04-23T10:51:43.870Z,16.03
2019-04-23T10:59:38.948Z,17.63
2019-04-23T11:02:36.718Z,20.23
2019-04-23T11:10:05.644Z,20.83
2019-04-23T11:17:58.854Z,17.47
2019-04-23T11:20:29.994Z,22.00
2019-04-23T11:23:08.116Z,21.23
2019-04-23T11:28:05.664Z,46.30
2019-04-23T11:36:01.753Z,22.67
2019-04-23T11:38:43.715Z,19.32
2019-04-23T11:40:41.842Z,20.77
2019-04-23T11:46:07.990Z,19.00
2019-04-23T11:51:36.386Z,23.77
2019-04-23T11:56:19.590Z,16.67
2019-04-23T11:58:42.221Z,26.80
2019-04-23T12:01:42.233Z,16.13
2019-04-23T12:10:16.762Z,21.65
2019-04-23T12:12:33.367Z,18.97
2019-04-23T12:15:15.512Z,15.50
2019-04-23T12:17:47.124Z,17.33
2019-04-23T12:20:32.065Z,19.77
2019-04-23T12:25:28.026Z,17.37
2019-04-23T12:27:46.951Z,19.48
2019-04-23T12:30:39.536Z,19.50
2019-04-23T12:33:03.353Z,15.08
2019-04-23T12:35:43.406Z,15.60
2019-04-23T12:38:14.252Z,16.53
2019-04-23T12:40:38.367Z,23.33
2019-04-23T12:43:14.571Z,14.70
2019-04-23T12:45:56.420Z,16.40
2019-04-23T12:48:35.128Z,15.67
2019-04-23T12:51:08.152Z,17.87
2019-04-23T12:53:30.454Z,15.20
2019-04-23T12:56:22.000Z,14.60
2019-04-23T12:58:33.814Z,17.60
2019-04-23T13:01:13.957Z,15.37
2019-04-23T13:03:45.537Z,15.13
2019-04-23T13:06:20.429Z,16.60
2019-04-23T13:08:51.548Z,17.30
2019-04-23T13:11:33.357Z,18.03
2019-04-23T13:14:00.485Z,16.40
2019-04-23T13:16:46.778Z,16.15
2019-04-23T13:19:14.452Z,14.87
2019-04-23T13:24:32.850Z,11.37
2019-04-23T13:27:15.644Z,13.00
2019-04-23T13:29:50.168Z,16.65
2019-04-23T13:32:20.730Z,21.62
2019-04-23T13:46:14.120Z,15.60
2019-04-23T13:48:42.157Z,10.95
2019-04-23T13:51:21.141Z,13.53
2019-04-23T13:53:53.483Z,14.40
2019-04-23T13:56:39.532Z,11.67
2019-04-23T14:01:32.288Z,24.03
2019-04-23T14:04:26.922Z,13.70
2019-04-23T14:06:47.524Z,12.80
2019-04-23T14:09:23.610Z,12.53
2019-04-23T14:11:58.352Z,17.10
2019-04-23T14:20:04.989Z,11.27
2019-04-23T14:22:51.143Z,9.50
2019-04-23T14:27:37.241Z,10.40
2019-04-23T14:30:25.581Z,15.43
2019-04-23T14:32:49.925Z,12.57
2019-04-23T14:35:25.640Z,11.25
2019-04-23T14:38:01.655Z,10.87
2019-04-23T14:40:29.767Z,13.17
2019-04-23T14:43:10.939Z,13.32
2019-04-23T14:46:00.434Z,9.83
2019-04-23T14:48:17.574Z,12.63
2019-04-23T14:50:39.811Z,13.33
2019-04-23T14:53:18.242Z,10.33
2019-04-23T14:55:56.476Z,13.63
2019-04-23T14:58:42.585Z,10.93
2019-04-23T15:03:32.901Z,10.37
2019-04-23T15:06:12.645Z,18.33
2019-04-23T15:11:21.472Z,10.40
2019-04-23T15:13:44.697Z,9.40
2019-04-23T15:16:22.338Z,11.55
2019-04-23T15:19:22.149Z,13.55
2019-04-23T15:27:45.759Z,13.90
2019-04-23T15:28:58.727Z,13.18
2019-04-23T15:34:30.440Z,10.47
2019-04-23T15:37:25.726Z,9.95
2019-04-23T15:39:29.258Z,10.90
2019-04-23T15:42:08.856Z,10.97
2019-04-23T15:44:27.225Z,15.40
2019-04-23T15:47:10.677Z,11.17
2019-04-23T15:50:03.172Z,10.23
2019-04-23T15:52:33.251Z,8.70
2019-04-23T15:54:52.844Z,8.80
2019-04-23T15:57:18.114Z,12.93
2019-04-23T16:01:56.640Z,8.90
2019-04-23T16:04:29.582Z,10.30
2019-04-23T16:07:02.338Z,15.03
2019-04-23T16:10:09.420Z,8.50
2019-04-23T16:12:31.550Z,16.50
2019-04-23T16:17:41.734Z,12.27
2019-04-23T16:20:33.387Z,10.47
2019-04-23T16:22:51.408Z,15.73
2019-04-23T16:25:29.886Z,14.47
2019-04-23T16:28:09.346Z,10.10
2019-04-23T16:30:50.059Z,8.70
2019-04-23T16:33:30.250Z,11.63
2019-04-23T16:35:58.484Z,10.63
2019-04-23T16:38:45.318Z,9.10
2019-04-23T16:41:07.244Z,10.00
2019-04-23T16:43:33.936Z,12.43
2019-04-23T16:46:13.087Z,10.60
2019-04-23T16:49:03.240Z,13.57
2019-04-23T16:53:44.715Z,18.73
2019-04-23T16:56:26.000Z,11.33
2019-04-23T16:59:13.603Z,13.30
2019-04-23T17:01:26.546Z,12.70
2019-04-23T17:04:11.768Z,11.73
2019-04-23T17:06:38.527Z,12.67
2019-04-23T17:09:36.800Z,14.33
2019-04-23T17:11:53.054Z,12.53
2019-04-23T17:16:59.836Z,12.88
2019-04-23T17:22:07.010Z,11.97
2019-04-23T17:24:46.319Z,12.43
2019-04-23T17:27:22.774Z,10.70
2019-04-23T17:32:27.980Z,12.60
2019-04-23T17:40:18.284Z,11.27
2019-04-23T17:43:14.632Z,9.75
2019-04-23T17:45:50.876Z,9.53
2019-04-23T17:48:40.297Z,13.87
2019-04-23T17:53:38.268Z,10.43
2019-04-23T18:04:14.043Z,11.57
2019-04-23T18:06:41.048Z,10.70
2019-04-23T18:09:11.176Z,11.23
2019-04-23T18:11:31.327Z,9.63
2019-04-23T18:19:12.339Z,10.15
2019-04-23T18:22:07.423Z,8.77
2019-04-23T18:24:59.034Z,8.05
2019-04-23T18:27:27.545Z,9.57
2019-04-23T18:30:20.404Z,12.37
2019-04-23T18:33:34.024Z,6.50
2019-04-23T18:41:01.335Z,8.60
2019-04-23T18:45:55.672Z,10.97
2019-04-23T18:53:45.417Z,10.55
2019-04-23T19:06:34.398Z,13.10
2019-04-23T19:12:36.035Z,6.97
2019-04-23T19:17:48.171Z,9.48
2019-04-23T19:20:17.979Z,7.67
2019-04-23T19:27:51.830Z,7.93
2019-04-23T19:30:37.306Z,10.00
2019-04-23T19:33:14.199Z,7.05
2019-04-23T19:38:17.875Z,8.57
2019-04-23T19:43:41.540Z,9.97
2019-04-23T19:46:02.005Z,10.37
2019-04-23T19:48:42.178Z,11.20
2019-04-23T19:56:29.053Z,9.70
2019-04-23T19:58:46.780Z,9.23
2019-04-23T20:03:58.710Z,9.53
2019-04-23T20:06:32.755Z,9.40
2019-04-23T20:09:17.758Z,9.03
2019-04-23T20:11:38.152Z,11.13
2019-04-23T20:14:02.659Z,10.50
2019-04-23T20:16:50.581Z,9.30
2019-04-23T20:19:25.345Z,11.37
2019-04-23T20:22:00.576Z,9.17
2019-04-23T20:24:27.894Z,12.87
2019-04-23T20:27:06.048Z,9.20
2019-04-23T20:30:02.766Z,9.67
2019-04-23T20:32:56.304Z,16.07
2019-04-23T20:35:06.588Z,12.33
2019-04-23T20:38:05.147Z,9.35
2019-04-23T20:40:11.375Z,9.80
2019-04-23T20:42:37.129Z,11.33
2019-04-23T20:47:45.892Z,9.30
2019-04-23T20:50:10.571Z,9.00
2019-04-23T20:52:49.649Z,9.43
2019-04-23T20:55:37.022Z,10.43
2019-04-23T20:58:23.126Z,8.68
2019-04-23T21:01:13.269Z,8.20
2019-04-23T21:03:47.261Z,11.60
2019-04-23T21:09:24.089Z,10.20
2019-04-23T21:11:34.608Z,10.33
2019-04-23T21:14:22.367Z,10.13
2019-04-23T21:16:30.893Z,8.60
2019-04-23T21:18:55.098Z,9.38
2019-04-23T21:21:33.072Z,9.07
2019-04-23T21:24:16.905Z,9.07
2019-04-23T21:26:44.230Z,8.60
2019-04-23T21:29:04.013Z,9.65
2019-04-23T21:31:48.589Z,10.30
2019-04-23T21:34:17.751Z,7.73
2019-04-23T21:36:50.404Z,8.40
2019-04-23T21:42:54.301Z,7.72
2019-04-23T21:45:13.584Z,7.27
2019-04-23T21:47:51.856Z,9.00
2019-04-23T21:52:56.400Z,8.55
2019-04-23T21:55:36.503Z,7.80
2019-04-23T21:58:07.535Z,9.00
2019-04-23T22:00:42.351Z,9.47
2019-04-23T22:03:11.859Z,9.10
2019-04-23T22:05:45.989Z,8.97
2019-04-23T22:13:19.796Z,8.47
2019-04-23T22:16:01.794Z,7.47
2019-04-23T22:18:22.036Z,7.67
2019-04-23T22:20:48.901Z,8.03
2019-04-23T22:23:36.542Z,8.10
2019-04-23T22:26:07.823Z,8.35
2019-04-23T22:28:43.424Z,8.73
2019-04-23T22:31:12.493Z,7.77
2019-04-23T22:33:46.585Z,8.40
2019-04-23T22:36:21.022Z,8.20
2019-04-23T22:38:53.045Z,12.00
2019-04-23T22:41:28.590Z,9.97
2019-04-23T22:44:05.310Z,9.43
2019-04-23T22:46:36.967Z,9.98
2019-04-23T22:49:18.018Z,10.70
2019-04-23T22:51:47.551Z,9.43
2019-04-23T22:54:12.311Z,7.47
2019-04-23T22:56:50.114Z,7.90
2019-04-23T23:02:30.460Z,9.40
2019-04-23T23:04:28.662Z,7.60
2019-04-23T23:09:37.902Z,8.27
2019-04-23T23:12:04.374Z,7.83
2019-04-23T23:14:35.431Z,6.97
2019-04-23T23:17:16.244Z,8.33
2019-04-23T23:19:50.945Z,7.70
2019-04-23T23:22:18.383Z,7.67
2019-04-23T23:25:02.800Z,7.50
2019-04-23T23:27:23.722Z,7.23
2019-04-23T23:30:02.802Z,7.33
2019-04-23T23:32:33.469Z,7.95
2019-04-23T23:35:24.513Z,7.53
2019-04-23T23:37:37.316Z,7.07
2019-04-23T23:42:43.213Z,6.87
2019-04-23T23:45:18.422Z,7.50
2019-04-23T23:47:53.834Z,7.25
2019-04-23T23:53:02.763Z,6.37
2019-04-23T23:58:06.414Z,9.50
